Latest Weather Observations for Laverton

IDV60901

Issued at 2:21 pm EDT Monday 22 December 2014 (issued every 10 minutes, with the page automatically refreshed every 10 minutes)

About weather observations | Map of Melbourne area stations | Latest observations for Melbourne area | Other Formats
Station Details ID: 087031 Name: LAVERTON RAAF Lat: -37.86 Lon: 144.76 Height: 20.1 m
Data from the previous 72 hours. | See also: Recent months at Laverton
Date/Time
EDT
Tmp

°C
App
Tmp
°C
Dew
Point
°C
Rel
Hum
%
Delta-T

°C
Wind Press
QNH
hPa
Press
MSL
hPa
Rain
since
9 am
mm
Dir
 
Spd
km/h
Gust
km/h
Spd
kts
Gust
kts
22/02:00pm 22.8 22.5 16.4 67 3.9 SSE 13 19 7 10 1011.0 1011.0 0.0
22/01:30pm 22.4 21.4 15.7 66 4.0 S 15 19 8 10 1011.5 1011.5 0.0
22/01:00pm 23.3 22.4 15.9 63 4.5 SSE 15 20 8 11 1011.9 1011.8 0.0
22/12:30pm 21.8 20.7 15.4 67 3.8 SSW 15 22 8 12 1012.4 1012.3 0.0
22/12:00pm 21.2 19.8 15.5 70 3.4 S 17 22 9 12 1012.6 1012.5 0.0
22/11:30am 21.6 20.6 15.7 69 3.5 S 15 20 8 11 1012.8 1012.7 0.0
22/11:00am 20.9 19.8 15.4 71 3.3 SE 15 22 8 12 1012.8 1012.7 0.0
22/10:56am 20.4 18.8 15.0 71 3.2 SE 17 22 9 12 1012.8 1012.7 0.0
22/10:30am 20.3 19.3 15.5 74 2.8 SSE 15 19 8 10 1013.1 1013.0 0.0
22/10:00am 19.8 19.1 15.4 76 2.6 SE 13 19 7 10 1013.2 1013.1 0.0
22/09:30am 19.4 19.8 15.3 77 2.4 S 7 9 4 5 1013.3 1013.2 0.0
22/09:00am 19.0 19.3 15.1 78 2.3 SE 7 13 4 7 1013.3 1013.2 0.0
22/08:30am 18.5 18.8 15.0 80 2.0 ESE 7 13 4 7 1013.2 1013.1 0.0
22/08:00am 18.4 19.0 15.3 82 1.8 SE 6 7 3 4 1013.2 1013.1 0.0
22/07:30am 18.0 18.0 15.3 84 1.6 WSW 9 13 5 7 1013.3 1013.2 0.0
22/07:00am 17.5 17.4 15.0 85 1.5 W 9 13 5 7 1013.0 1012.9 0.0
22/06:36am 17.5 17.8 15.1 86 1.4 WSW 7 9 4 5 1012.9 1012.8 0.0
22/06:30am 17.5 17.8 15.1 86 1.4 WSW 7 11 4 6 1013.0 1012.9 0.0
22/05:30am 17.0 16.9 15.0 88 1.2 WSW 9 13 5 7 1012.6 1012.5 0.0
22/05:11am 16.9 16.8 14.9 88 1.2 WSW 9 13 5 7 1012.6 1012.5 0.0
22/05:00am 16.9 16.8 14.9 88 1.2 WSW 9 13 5 7 1012.6 1012.5 0.0
22/04:30am 16.9 16.4 14.9 88 1.2 WSW 11 15 6 8 1012.8 1012.7 0.0
22/04:00am 17.0 16.5 14.8 87 1.3 WSW 11 17 6 9 1012.9 1012.8 0.0
22/03:30am 16.9 16.7 14.7 87 1.3 WSW 9 13 5 7 1012.9 1012.8 0.0
22/03:17am 16.9 16.3 14.7 87 1.3 WSW 11 13 6 7 1013.0 1012.9 0.0
22/03:10am 16.9 16.3 14.7 87 1.3 WSW 11 15 6 8 1013.1 1013.0 0.0
22/03:00am 16.9 15.9 14.7 87 1.3 WSW 13 17 7 9 1013.2 1013.1 0.0
22/02:54am 17.0 16.1 14.8 87 1.3 WSW 13 17 7 9 1013.3 1013.2 0.0
22/02:50am 17.0 16.1 14.8 87 1.3 WSW 13 17 7 9 1013.3 1013.2 0.0
22/02:30am 17.0 16.5 14.8 87 1.3 WSW 11 15 6 8 1013.4 1013.3 0.0
22/02:00am 16.9 16.8 14.9 88 1.2 WSW 9 13 5 7 1013.6 1013.5 0.0
22/01:30am 16.8 16.2 14.6 87 1.3 SW 11 15 6 8 1014.0 1013.9 0.0
22/01:00am 17.2 16.3 14.8 86 1.4 SSW 13 19 7 10 1014.4 1014.3 0.0
22/12:46am 17.3 16.4 14.9 86 1.4 SW 13 17 7 9 1014.6 1014.5 0.0
22/12:30am 17.4 16.8 14.7 84 1.6 SW 11 19 6 10 1014.7 1014.6 0.0
22/12:00am 17.9 16.7 15.0 83 1.7 SSW 15 22 8 12 1014.5 1014.4 0.0
 
Date/Time
EDT
Tmp

°C
App
Tmp
°C
Dew
Point
°C
Rel
Hum
%
Delta-T

°C
Wind Press
QNH
hPa
Press
MSL
hPa
Rain
since
9 am
mm
Dir
 
Spd
km/h
Gust
km/h
Spd
kts
Gust
kts
21/11:30pm 18.0 17.3 15.4 85 1.5 SW 13 17 7 9 1014.5 1014.4 0.0
21/11:00pm 18.3 16.5 15.6 84 1.6 SSW 19 24 10 13 1014.5 1014.4 0.0
21/10:30pm 18.9 16.9 15.6 81 1.9 SSW 20 28 11 15 1014.4 1014.3 0.0
21/10:00pm 20.1 17.2 14.0 68 3.5 SSW 22 32 12 17 1014.0 1013.9 0.0
21/09:30pm 21.3 18.4 13.0 59 4.7 SSW 20 32 11 17 1013.3 1013.2 0.0
21/09:00pm 22.5 18.5 11.9 51 6.0 SSW 24 32 13 17 1012.9 1012.8 0.0
21/08:30pm 23.9 21.9 14.0 54 5.8 SSW 17 24 9 13 1012.3 1012.2 0.0
21/08:00pm 25.5 23.8 13.7 48 7.0 SSE 15 20 8 11 1011.8 1011.7 0.0
21/07:30pm 25.3 23.2 13.5 48 6.9 S 17 22 9 12 1011.3 1011.3 0.0
21/07:00pm 25.9 23.5 14.4 49 6.9 S 20 28 11 15 1011.2 1011.2 0.0
21/06:30pm 26.4 23.8 14.8 49 7.0 S 22 32 12 17 1010.9 1010.9 0.0
21/06:00pm 26.5 22.9 14.3 47 7.3 S 26 35 14 19 1010.8 1010.7 0.0
21/05:30pm 26.6 21.9 11.9 40 8.4 S 28 37 15 20 1010.9 1010.9 0.0
21/05:00pm 28.5 23.5 11.1 34 10.0 S 28 41 15 22 1010.8 1010.8 0.0
21/04:30pm 29.8 25.4 10.4 30 11.0 SE 24 33 13 18 1010.9 1010.9 0.0
21/04:00pm 30.1 25.4 9.1 27 11.7 SE 24 32 13 17 1011.0 1011.0 0.0
21/03:30pm 30.3 26.4 10.8 30 11.2 SE 22 28 12 15 1011.2 1011.2 0.0
21/03:00pm 29.4 26.1 11.5 33 10.3 SE 20 26 11 14 1011.8 1011.7 0.0
21/02:30pm 29.6 26.5 11.6 33 10.4 SE 19 24 10 13 1012.1 1012.0 0.0
21/02:00pm 29.5 27.2 12.9 36 9.8 SE 17 22 9 12 1012.5 1012.4 0.0
21/01:30pm 28.4 26.3 12.3 37 9.4 SE 15 19 8 10 1012.9 1012.8 0.0
21/01:00pm 26.7 24.5 13.4 43 7.8 SE 17 24 9 13 1013.3 1013.2 0.0
21/12:30pm 26.4 24.3 13.5 45 7.6 SE 17 22 9 12 1013.5 1013.4 0.0
21/12:00pm 26.1 24.8 13.6 46 7.4 SE 13 20 7 11 1013.8 1013.7 0.0
21/11:30am 25.3 24.3 13.5 48 6.9 SE 11 15 6 8 1013.9 1013.8 0.0
21/11:00am 24.0 22.6 13.5 52 6.1 SSE 13 17 7 9 1014.0 1013.9 0.0
21/10:30am 23.3 22.8 13.8 55 5.5 ESE 9 15 5 8 1014.0 1013.9 0.0
21/10:00am 22.8 21.8 12.4 52 5.9 E 9 13 5 7 1014.1 1014.0 0.0
21/09:30am 21.3 20.9 13.0 59 4.7 ESE 7 11 4 6 1014.7 1014.6 0.0
21/09:00am 19.8 19.0 12.8 64 3.9 ENE 9 15 5 8 1014.7 1014.6 0.0
21/08:30am 18.1 17.0 13.0 72 2.9 NE 11 15 6 8 1014.8 1014.7 0.0
21/08:00am 16.7 15.7 13.4 81 1.9 ENE 11 15 6 8 1014.6 1014.5 0.0
21/07:30am 14.6 14.4 13.0 90 0.9 NNW 6 9 3 5 1015.0 1014.9 0.0
21/07:00am 12.1 11.7 11.2 94 0.5 NW 4 7 2 4 1015.2 1015.1 0.0
21/06:30am 10.4 9.2 9.5 94 0.5 NW 6 7 3 4 1015.1 1015.0 0.0
21/06:00am 10.3 9.4 9.2 93 0.5 WNW 4 6 2 3 1014.6 1014.5 0.0
21/05:30am 10.9 9.6 10.0 94 0.5 WNW 7 9 4 5 1014.5 1014.4 0.0
21/05:00am 10.6 8.9 9.7 94 0.5 NW 9 11 5 6 1014.3 1014.2 0.0
21/04:30am 10.6 9.2 9.5 93 0.6 NNW 7 9 4 5 1014.3 1014.2 0.0
21/04:00am 11.1 9.4 10.0 93 0.6 NNW 9 11 5 6 1014.5 1014.4 0.0
21/03:30am 11.2 9.5 9.9 92 0.7 NNW 9 11 5 6 1014.9 1014.8 0.0
21/03:00am 11.9 10.4 10.5 91 0.7 NW 9 11 5 6 1015.2 1015.1 0.0
21/02:50am 11.8 10.6 10.4 91 0.7 NW 7 9 4 5 1015.4 1015.3 0.0
21/02:30am 12.1 10.6 10.5 90 0.8 NNW 9 11 5 6 1015.6 1015.5 0.0
21/02:01am 12.0 10.5 10.4 90 0.8 NW 9 11 5 6 1015.9 1015.8 0.0
21/02:00am 12.0 10.5 10.4 90 0.8 NW 9 11 5 6 1015.9 1015.8 0.0
21/01:30am 11.9 10.6 10.0 88 1.0 NW 7 9 4 5 1016.2 1016.1 0.0
21/01:00am 12.5 11.0 10.4 87 1.1 NW 9 9 5 5 1016.7 1016.6 0.0
21/12:30am 13.5 13.8 10.9 84 1.4 CALM 0 7 0 4 1017.1 1017.0 0.0
21/12:00am 15.4 15.4 12.5 83 1.6 SSW 4 7 2 4 1017.4 1017.3 0.0
 
Date/Time
EDT
Tmp

°C
App
Tmp
°C
Dew
Point
°C
Rel
Hum
%
Delta-T

°C
Wind Press
QNH
hPa
Press
MSL
hPa
Rain
since
9 am
mm
Dir
 
Spd
km/h
Gust
km/h
Spd
kts
Gust
kts
20/11:30pm 15.4 15.0 12.3 82 1.7 SSW 6 7 3 4 1017.6 1017.5 0.0
20/11:00pm 15.7 14.8 12.6 82 1.7 SSW 9 11 5 6 1017.8 1017.7 0.0
20/10:30pm 15.9 15.0 12.6 81 1.8 S 9 11 5 6 1018.0 1017.9 0.0
20/10:00pm 16.1 14.4 12.5 79 2.0 S 13 17 7 9 1018.1 1018.0 0.0
20/09:30pm 16.3 14.6 12.5 78 2.1 S 13 19 7 10 1017.9 1017.8 0.0
20/09:00pm 16.8 14.4 12.5 76 2.4 SSE 17 26 9 14 1017.7 1017.6 0.0
20/08:30pm 17.1 14.2 12.2 73 2.7 S 19 26 10 14 1017.6 1017.5 0.0
20/08:00pm 17.8 14.2 12.0 69 3.2 S 22 30 12 16 1017.5 1017.4 0.0
20/07:30pm 18.6 15.1 12.1 66 3.6 S 22 28 12 15 1017.2 1017.1 0.0
20/07:00pm 19.4 16.1 11.7 61 4.2 S 20 28 11 15 1017.0 1016.9 0.0
20/06:30pm 19.8 16.6 11.8 60 4.4 S 20 28 11 15 1016.7 1016.6 0.0
20/06:00pm 20.0 16.7 11.5 58 4.7 S 20 30 11 16 1016.6 1016.5 0.0
20/05:30pm 20.2 17.0 11.9 59 4.6 SSE 20 30 11 16 1016.6 1016.5 0.0
20/05:00pm 20.3 16.9 11.2 56 5.0 SSE 20 30 11 16 1016.9 1016.8 0.0
20/04:30pm 20.3 17.0 11.5 57 4.9 SE 20 30 11 16 1017.0 1016.9 0.0
20/04:00pm 19.8 16.1 10.2 54 5.2 SE 20 30 11 16 1017.4 1017.3 0.0
20/03:30pm 20.0 15.9 10.1 53 5.3 SE 22 28 12 15 1017.6 1017.5 0.0
20/03:00pm 19.8 16.2 10.5 55 5.0 ESE 20 30 11 16 1017.8 1017.7 0.0
20/02:30pm 20.5 17.5 10.6 53 5.4 SE 17 28 9 15 1018.0 1017.9 0.0
20/02:00pm 20.1 16.6 10.2 53 5.3 ESE 19 28 10 15 1018.3 1018.2 0.0
20/01:30pm 20.9 17.7 9.8 49 6.0 SSE 17 22 9 12 1018.5 1018.4 0.0
20/01:00pm 20.1 18.0 9.9 52 5.5 S 11 22 6 12 1018.6 1018.5 0.0
20/12:30pm 20.0 16.9 10.4 54 5.2 S 17 22 9 12 1019.0 1018.9 0.0
20/12:00pm 19.7 16.9 9.9 53 5.2 S 15 24 8 13 1019.1 1019.0 0.0
20/11:30am 18.9 16.8 9.9 56 4.8 S 11 20 6 11 1019.2 1019.1 0.0
20/11:00am 19.3 16.8 9.8 54 5.0 S 13 20 7 11 1019.4 1019.3 0.0
20/10:30am 18.4 15.6 10.0 58 4.5 SSW 15 24 8 13 1019.6 1019.5 0.0
20/10:00am 17.3 14.7 9.5 60 4.1 SSW 13 24 7 13 1019.7 1019.6 0.0
20/09:30am 17.2 14.5 9.1 59 4.2 SW 13 19 7 10 1019.6 1019.5 0.0
20/09:00am 16.8 13.7 9.0 60 4.0 SSW 15 22 8 12 1019.4 1019.3 0.2
20/08:30am 15.6 13.0 9.3 66 3.2 WSW 13 19 7 10 1019.2 1019.1 0.2
20/08:00am 14.2 11.8 8.8 70 2.7 W 11 15 6 8 1018.9 1018.8 0.2
20/07:30am 12.4 10.5 9.1 80 1.7 WNW 9 11 5 6 1018.6 1018.5 0.2
20/07:00am 10.3 7.8 8.1 86 1.1 NW 11 13 6 7 1018.4 1018.3 0.2
20/06:30am 8.6 6.1 6.7 88 0.9 NW 9 11 5 6 1018.2 1018.1 0.2
20/06:00am 8.2 5.3 6.3 88 0.9 NW 11 11 6 6 1018.1 1018.0 0.2
20/05:30am 8.1 5.1 6.1 87 0.9 NW 11 13 6 7 1018.1 1018.0 0.2
20/05:00am 8.5 5.5 6.1 85 1.1 NW 11 11 6 6 1018.0 1017.9 0.2
20/04:30am 8.8 5.9 6.6 86 1.0 NW 11 11 6 6 1018.0 1017.9 0.2
20/04:00am 8.9 6.0 6.5 85 1.1 NW 11 11 6 6 1018.0 1017.9 0.2
20/03:30am 9.3 6.4 6.7 84 1.2 NW 11 11 6 6 1018.1 1018.0 0.2
20/03:00am 9.7 7.3 7.0 83 1.3 WNW 9 11 5 6 1018.2 1018.1 0.2
20/02:30am 10.3 8.0 7.4 82 1.4 WNW 9 11 5 6 1018.5 1018.4 0.2
20/02:00am 11.0 8.7 7.5 79 1.7 WNW 9 13 5 7 1018.7 1018.6 0.2
20/01:30am 12.3 10.1 7.8 74 2.2 W 9 13 5 7 1019.0 1018.9 0.2
20/01:00am 13.4 10.8 7.6 68 2.8 W 11 17 6 9 1019.2 1019.1 0.2
20/12:30am 14.0 11.5 8.2 68 2.9 WSW 11 15 6 8 1019.4 1019.3 0.2
20/12:00am 14.3 12.3 8.7 69 2.8 SSW 9 13 5 7 1019.7 1019.6 0.2
 
Date/Time
EDT
Tmp

°C
App
Tmp
°C
Dew
Point
°C
Rel
Hum
%
Delta-T

°C
Wind Press
QNH
hPa
Press
MSL
hPa
Rain
since
9 am
mm
Dir
 
Spd
km/h
Gust
km/h
Spd
kts
Gust
kts
19/11:30pm 14.2 12.2 8.6 69 2.8 S 9 15 5 8 1019.9 1019.8 0.2
19/11:00pm 14.4 11.7 8.8 69 2.8 S 13 17 7 9 1020.1 1020.0 0.2
19/10:30pm 14.7 12.0 8.9 68 3.0 SSW 13 17 7 9 1020.1 1020.0 0.2
19/10:00pm 14.8 12.0 8.7 67 3.1 S 13 19 7 10 1019.9 1019.8 0.2
19/09:30pm 15.2 12.4 8.7 65 3.3 SSE 13 19 7 10 1019.8 1019.7 0.2
19/09:00pm 15.2 11.5 8.0 62 3.6 SSE 17 22 9 12 1019.8 1019.7 0.2
19/08:30pm 15.5 12.2 8.0 61 3.8 SSE 15 20 8 11 1019.7 1019.6 0.2
19/08:00pm 15.9 12.1 7.7 58 4.1 S 17 24 9 13 1019.5 1019.4 0.2
19/07:30pm 16.4 12.0 7.3 55 4.5 S 20 28 11 15 1019.3 1019.2 0.2
19/07:00pm 16.8 12.0 7.2 53 4.8 S 22 35 12 19 1018.8 1018.7 0.2
19/06:30pm 17.2 12.0 7.3 52 5.0 SSE 24 33 13 18 1018.5 1018.4 0.2
19/06:00pm 17.3 12.6 7.9 54 4.8 SSE 22 32 12 17 1018.1 1018.0 0.2
19/05:30pm 17.8 13.2 8.1 53 5.0 SSE 22 32 12 17 1018.0 1017.9 0.2
19/05:00pm 18.0 13.4 8.3 53 5.0 SSE 22 32 12 17 1017.9 1017.8 0.2
19/04:30pm 17.7 13.0 7.7 52 5.1 SE 22 32 12 17 1017.9 1017.8 0.2
19/04:00pm 18.6 14.0 8.0 50 5.4 SSE 22 35 12 19 1017.7 1017.6 0.2
19/03:30pm 18.2 13.8 7.3 49 5.5 SE 20 32 11 17 1017.7 1017.6 0.2
19/03:00pm 18.6 14.4 8.3 51 5.3 SE 20 30 11 16 1017.6 1017.5 0.2
19/02:30pm 17.5 13.2 7.8 53 4.9 SSE 20 32 11 17 1017.7 1017.6 0.2

Latest Capital City Observations: Canberra | Sydney | Melbourne | Brisbane | Adelaide | Perth | Hobart | Darwin

Other Formats:

Comma delimited format used in spreadsheet applications
http://www.bom.gov.au/fwo/IDV60901/IDV60901.94865.axf

JavaScript Object Notation format (JSON) in row-major order
http://www.bom.gov.au/fwo/IDV60901/IDV60901.94865.json